Knight Air

Knight Air knights of the virtual airways



 METAR AND TAF INFORMATION
METAR FOR EGCC
ADDS - METARS form results

(1226 UTC 18 April 2019)
Data provider http://aviationweather.gov/metar/data/
 
METAR text: EGCC 181220Z AUTO 10008KT 050V150 9999 NCD 17/09 Q1025
Conditions at: EGCC (MANCHESTER INTL , GB) observed 1220 UTC 18 April 2019
Temperature: 17.0°C (63°F)
Dewpoint: 9.0°C (48°F) [RH = 59%]
Pressure (altimeter): 30.27 inches Hg (1025.0 mb)
Winds: from the E (100 degrees) at 9 MPH (8 knots; 4.1 m/s)
Visibility: 6 or more miles (10+ km)
Ceiling: at least 12,000 feet AGL
Clouds: sky clear below 12,000 feet AGL
Weather: no significant weather observed at this time

METAR text: EGCC 181150Z AUTO 08009KT 040V150 9000 NCD 17/09 Q1025 NOSIG
Conditions at: EGCC (MANCHESTER INTL , GB) observed 1150 UTC 18 April 2019
Temperature: 17.0°C (63°F)
Dewpoint: 9.0°C (48°F) [RH = 59%]
Pressure (altimeter): 30.27 inches Hg (1025.0 mb)
Winds: from the E (80 degrees) at 10 MPH (9 knots; 4.6 m/s)
Visibility: 6 miles ( 9 km)
Ceiling: at least 12,000 feet AGL
Clouds: sky clear below 12,000 feet AGL
Weather: no significant weather observed at this time

Forecast for: AMD
Text: TAF AMD EGCC 181225Z 1812/1918 08007KT 5000 HZ FEW035
Forecast period: 1200 UTC 18 April 2019 to 1800 UTC 19 April 2019
Forecast type: FROM: standard forecast or significant change
Winds: from the E (80 degrees) at 8 MPH (7 knots; 3.6 m/s)
Visibility: 3 miles (5 km)
Ceiling: at least 12,000 feet AGL
Clouds: few clouds at 3500 feet AGL
Weather: HZ  (haze)
Text: TEMPO 1812/1821 9999 NSW
Forecast period: 1200 to 2100 UTC 18 April 2019
Forecast type: TEMPORARY: The following changes expected for less than half the time period
Visibility: 6 or more miles 10+ km)
Ceiling: unknown
Clouds: missing
Weather: NSW  (no significant weather)
Text: PROB30 1821/1910 4000 BR
Forecast period: 2100 UTC 18 April 2019 to 1000 UTC 19 April 2019
Forecast type: PROBABLE: 30 percent likelihood of the following during this time
Visibility: 2.49 miles (4.01 km)
Ceiling: unknown
Clouds: missing
Weather: BR  (mist)

 AIRPORT MAP

 RUNWAY INFORMATION
Runway 05L Runway length 10000 ft Runway width 150 ft
Runway elevation 212 ft Runway displaced threshold 1401 ft Runway heading 51
Runway 23R Runway length 10000 ft Runway width 150 ft
Runway elevation 249 ft Runway displaced threshold 600 ft Runway heading 231
Runway 05R Runway length 9997 ft Runway width 150 ft
Runway elevation 186 ft Runway displaced threshold 604 ft Runway heading 51
Runway 23L Runway length 9997 ft Runway width 150 ft
Runway elevation 227 ft Runway displaced threshold 604 ft Runway heading 231

 AIRPORT FREQUENCIES
Type APP Name APP Frequency 135 MHZ
Type ATIS Name ATIS Frequency 128.175 MHZ
Type CLD Name CLNC DEL Frequency 121.7 MHZ
Type GND Name GND Frequency 121.85 MHZ
Type TWR Name TWR Frequency 118.625 MHZ

 AIRPORT NEAR NAVIGATION AIDS
Type NDB Name Manchester Frequency 428 KHZ
Type VOR-DME Name Manchester Frequency 113550 KHZ